Time;durP1;ratioP1;P1;durP2;ratioP2;P2;SDS_P1;SDS_P2;PMS_P1;PMS_P2;Temp;Humidity;BMP_temperature;BMP_pressure;BME280_temperature;BME280_humidity;BME280_pressure;Samples;Min_cycle;Max_cycle;Signal;HPM_P1;HPM_P2
2022/05/31 00:00:01;;;;;;;2.10;1.00;;;9.90;99.90;;;;;;12192316;29;20083;-84
2022/05/31 00:06:03;;;;;;;3.08;1.27;;;9.80;99.90;;;;;;12181402;29;20154;-84
2022/05/31 00:12:06;;;;;;;3.55;1.05;;;9.80;99.90;;;;;;12197902;29;20100;-83
2022/05/31 00:18:08;;;;;;;2.05;1.05;;;9.80;99.90;;;;;;12200024;29;20059;-85
2022/05/31 00:24:13;;;;;;;2.97;0.98;;;9.70;99.90;;;;;;12191488;29;20147;-84
2022/05/31 00:30:16;;;;;;;3.85;1.10;;;9.60;99.90;;;;;;12180249;29;20250;-83
2022/05/31 00:36:17;;;;;;;4.30;1.00;;;9.40;99.90;;;;;;12191077;29;20052;-83
2022/05/31 00:42:22;;;;;;;3.22;1.20;;;9.40;99.90;;;;;;12191354;29;20070;-84
2022/05/31 00:48:33;;;;;;;2.60;1.20;;;9.30;99.90;;;;;;12195747;29;20071;-84
2022/05/31 00:54:38;;;;;;;4.22;1.30;;;9.30;99.90;;;;;;12207690;29;20484;-83
2022/05/31 01:00:41;;;;;;;3.45;1.20;;;9.30;99.90;;;;;;12204055;29;20102;-83
2022/05/31 01:06:43;;;;;;;5.25;1.83;;;9.20;99.90;;;;;;12178985;29;20412;-83
2022/05/31 01:12:47;;;;;;;4.03;1.85;;;9.10;99.90;;;;;;12193227;29;20464;-83
2022/05/31 01:18:49;;;;;;;1.77;1.25;;;9.10;99.90;;;;;;12191372;29;20143;-83
2022/05/31 01:24:58;;;;;;;2.70;1.25;;;9.20;99.90;;;;;;12188965;29;20143;-83
2022/05/31 01:31:12;;;;;;;2.65;1.08;;;9.30;99.90;;;;;;12192858;29;20564;-83
2022/05/31 01:37:14;;;;;;;;;;;9.20;99.90;;;;;;12215250;29;20496;-83
2022/05/31 01:43:16;;;;;;;2.08;1.20;;;9.00;99.90;;;;;;12184880;29;20447;-83
2022/05/31 01:49:19;;;;;;;2.78;1.45;;;8.90;99.90;;;;;;12196436;29;20520;-84
2022/05/31 01:55:21;;;;;;;1.52;1.13;;;9.00;99.90;;;;;;12196171;29;20052;-83
2022/05/31 02:01:24;;;;;;;2.92;1.60;;;9.00;99.90;;;;;;12194164;29;20503;-84
2022/05/31 02:07:27;;;;;;;3.25;1.33;;;8.90;99.90;;;;;;12184327;29;20054;-84
2022/05/31 02:13:29;;;;;;;4.15;1.73;;;8.80;99.90;;;;;;12198686;29;20056;-83
2022/05/31 02:19:31;;;;;;;2.55;1.60;;;8.70;99.90;;;;;;12198111;29;20052;-83
2022/05/31 02:25:33;;;;;;;3.15;1.40;;;8.70;99.90;;;;;;12188928;29;20102;-83
2022/05/31 02:31:35;;;;;;;2.70;1.60;;;8.70;99.90;;;;;;12202286;29;20083;-83
2022/05/31 02:37:39;;;;;;;4.00;1.60;;;8.70;99.90;;;;;;12177090;29;20059;-83
2022/05/31 02:43:41;;;;;;;4.30;2.07;;;8.70;99.90;;;;;;12177422;29;20056;-84
2022/05/31 02:49:45;;;;;;;2.30;1.30;;;8.70;99.90;;;;;;12196913;29;20076;-84
2022/05/31 02:55:46;;;;;;;2.65;1.50;;;8.60;99.90;;;;;;12180636;29;20056;-84
2022/05/31 03:01:50;;;;;;;3.10;1.42;;;8.50;99.90;;;;;;12192989;29;20184;-83
2022/05/31 03:07:52;;;;;;;4.00;1.30;;;8.60;99.90;;;;;;12185011;29;20059;-82
2022/05/31 03:14:01;;;;;;;3.25;1.60;;;8.60;99.90;;;;;;12199440;29;20063;-83
2022/05/31 03:20:07;;;;;;;2.65;1.50;;;8.50;99.90;;;;;;12187743;29;20112;-83
2022/05/31 03:26:13;;;;;;;6.00;1.70;;;8.60;99.90;;;;;;12199585;29;20246;-83
2022/05/31 03:32:16;;;;;;;2.75;1.48;;;8.50;99.90;;;;;;12186867;29;21151;-83
2022/05/31 03:38:18;;;;;;;6.28;1.95;;;8.50;99.90;;;;;;12214126;29;20138;-83
2022/05/31 03:44:19;;;;;;;3.45;1.60;;;8.40;99.90;;;;;;12214225;28;20051;-83
2022/05/31 03:50:21;;;;;;;5.82;1.83;;;8.40;99.90;;;;;;12180300;29;20656;-83
2022/05/31 03:56:23;;;;;;;3.30;1.65;;;8.40;99.90;;;;;;12205446;29;20401;-83
2022/05/31 04:02:25;;;;;;;4.47;1.80;;;8.30;99.90;;;;;;12192149;29;20090;-83
2022/05/31 04:08:27;;;;;;;4.43;1.83;;;8.30;99.90;;;;;;12195953;29;20131;-83
2022/05/31 04:14:29;;;;;;;5.85;1.98;;;8.40;99.90;;;;;;12211220;29;20516;-83
2022/05/31 04:20:33;;;;;;;4.35;1.95;;;8.30;99.90;;;;;;12196330;29;20195;-84
2022/05/31 04:26:41;;;;;;;4.10;1.80;;;8.40;99.90;;;;;;12199514;29;20134;-83
2022/05/31 04:32:42;;;;;;;3.05;1.65;;;8.30;99.90;;;;;;12206868;29;20135;-84
2022/05/31 04:38:44;;;;;;;6.03;1.85;;;8.40;99.90;;;;;;12195739;29;20609;-84
2022/05/31 04:44:46;;;;;;;5.70;2.00;;;8.50;99.90;;;;;;12194184;29;21540;-84
2022/05/31 04:50:48;;;;;;;3.05;1.65;;;8.50;99.90;;;;;;12193272;29;20060;-84
2022/05/31 04:56:52;;;;;;;4.82;2.00;;;8.40;99.90;;;;;;12190087;29;20492;-84
2022/05/31 05:02:54;;;;;;;;;;;8.50;99.90;;;;;;12201357;29;20263;-84
2022/05/31 05:08:56;;;;;;;6.60;2.05;;;8.50;99.90;;;;;;12213106;29;19930;-84
2022/05/31 05:14:58;;;;;;;6.78;2.10;;;8.60;99.90;;;;;;12190278;29;20107;-85
2022/05/31 05:21:01;;;;;;;4.95;2.15;;;8.60;99.90;;;;;;12207292;29;20135;-85
2022/05/31 05:27:03;;;;;;;4.03;1.95;;;8.60;99.90;;;;;;12202701;29;20064;-86
2022/05/31 05:33:06;;;;;;;6.10;2.55;;;8.80;99.90;;;;;;12206621;29;20546;-85
2022/05/31 05:39:10;;;;;;;3.20;2.00;;;8.80;99.90;;;;;;12185284;29;20079;-84
2022/05/31 05:45:12;;;;;;;5.37;2.60;;;8.90;99.90;;;;;;12207551;29;20063;-85
2022/05/31 05:51:20;;;;;;;4.65;2.50;;;8.90;99.90;;;;;;12181002;29;20488;-84
2022/05/31 05:57:21;;;;;;;5.88;2.55;;;9.10;99.90;;;;;;12188142;29;20472;-85
2022/05/31 06:03:50;;;;;;;6.72;2.55;;;9.20;99.90;;;;;;12189051;29;20502;-84
2022/05/31 06:10:06;;;;;;;4.78;2.28;;;9.30;99.90;;;;;;12194735;29;20056;-85
2022/05/31 06:16:09;;;;;;;7.00;2.33;;;9.50;99.90;;;;;;12194968;29;20060;-86
2022/05/31 06:22:12;;;;;;;7.78;2.33;;;9.60;99.90;;;;;;12188463;29;20045;-85
2022/05/31 06:28:13;;;;;;;7.35;2.30;;;9.70;99.90;;;;;;12184340;29;20082;-85
2022/05/31 06:34:18;;;;;;;3.63;1.90;;;9.90;99.90;;;;;;12184894;29;20090;-85
2022/05/31 06:40:20;;;;;;;5.35;1.80;;;10.10;99.90;;;;;;12205792;29;20525;-86
2022/05/31 06:46:22;;;;;;;6.57;2.40;;;10.20;99.90;;;;;;12185205;29;20083;-86
2022/05/31 06:58:45;;;;;;;5.28;1.73;;;10.60;99.90;;;;;;12194450;29;20049;-85
2022/05/31 07:04:46;;;;;;;6.18;2.30;;;10.60;99.90;;;;;;12212684;29;20135;-85
2022/05/31 07:10:48;;;;;;;6.63;1.85;;;10.80;99.90;;;;;;12212787;29;20521;-87
2022/05/31 07:16:50;;;;;;;7.95;1.77;;;11.20;99.90;;;;;;12225076;29;20056;-84
2022/05/31 07:22:52;;;;;;;4.28;1.38;;;11.70;99.90;;;;;;12199414;29;20068;-86
2022/05/31 07:28:54;;;;;;;4.78;1.42;;;12.10;99.90;;;;;;12180077;29;20048;-86
2022/05/31 07:34:56;;;;;;;5.10;1.70;;;12.50;99.90;;;;;;12183378;29;20132;-86
2022/05/31 07:41:00;;;;;;;3.35;1.38;;;12.80;99.90;;;;;;12188856;29;20045;-86
2022/05/31 07:47:03;;;;;;;2.90;1.20;;;12.90;99.90;;;;;;12195707;29;20068;-86
2022/05/31 07:53:05;;;;;;;3.70;1.50;;;13.10;99.90;;;;;;12177630;29;20059;-86
2022/05/31 07:59:07;;;;;;;3.90;1.33;;;13.20;99.90;;;;;;12182961;29;20071;-86
2022/05/31 08:05:10;;;;;;;6.05;1.50;;;13.40;99.90;;;;;;12177010;29;20052;-86
2022/05/31 08:11:33;;;;;;;2.72;1.10;;;13.40;99.90;;;;;;12195786;29;20154;-85
2022/05/31 08:17:36;;;;;;;2.75;1.20;;;13.60;99.90;;;;;;12178509;29;20106;-85
2022/05/31 08:23:37;;;;;;;4.45;1.15;;;13.50;99.90;;;;;;12177919;29;20135;-87
2022/05/31 08:29:42;;;;;;;5.88;1.48;;;13.70;99.90;;;;;;12182819;29;20468;-87
2022/05/31 08:35:44;;;;;;;4.05;1.20;;;13.70;99.90;;;;;;12186510;29;20151;-86
2022/05/31 08:42:13;;;;;;;4.38;1.30;;;13.80;99.90;;;;;;12191123;29;20110;-87
2022/05/31 08:48:31;;;;;;;5.15;1.70;;;14.00;99.90;;;;;;12210078;29;20564;-86
2022/05/31 09:01:06;;;;;;;6.18;1.65;;;14.60;99.90;;;;;;12208446;29;20413;-87
2022/05/31 09:07:34;;;;;;;4.47;1.67;;;14.70;99.90;;;;;;12191045;29;20068;-87
2022/05/31 09:13:53;;;;;;;3.78;1.38;;;14.80;99.90;;;;;;12194862;29;20516;-87
2022/05/31 09:20:25;;;;;;;7.85;1.50;;;14.70;99.90;;;;;;12207260;29;20044;-87
2022/05/31 09:26:51;;;;;;;3.60;1.30;;;14.60;99.90;;;;;;12193362;29;20091;-86
2022/05/31 09:33:06;;;;;;;3.15;1.20;;;14.60;99.90;;;;;;12181922;29;20056;-86
2022/05/31 09:39:25;;;;;;;6.40;1.55;;;14.50;99.90;;;;;;12185751;29;20103;-87
2022/05/31 09:45:32;;;;;;;6.47;1.40;;;14.50;99.90;;;;;;12186012;29;20063;-86
2022/05/31 09:51:40;;;;;;;3.17;1.10;;;14.30;99.90;;;;;;12198061;29;20079;-87
2022/05/31 09:57:42;;;;;;;4.30;1.25;;;14.00;99.90;;;;;;12179942;29;20140;-86
2022/05/31 10:03:48;;;;;;;4.10;1.02;;;13.80;99.90;;;;;;12191785;29;20059;-87
2022/05/31 10:10:01;;;;;;;4.13;1.50;;;13.80;99.90;;;;;;12202540;28;20059;-86
2022/05/31 10:16:10;;;;;;;5.88;1.38;;;13.90;99.90;;;;;;12194595;29;20142;-85
2022/05/31 10:22:17;;;;;;;6.32;1.45;;;14.00;99.90;;;;;;12206845;29;20112;-87
2022/05/31 10:28:25;;;;;;;5.85;1.13;;;14.20;99.90;;;;;;12190717;29;20564;-86
2022/05/31 10:34:47;;;;;;;4.78;1.38;;;14.20;99.90;;;;;;12196494;29;20094;-86
2022/05/31 10:41:07;;;;;;;4.43;1.08;;;14.00;99.90;;;;;;12185595;29;20441;-85
2022/05/31 10:47:12;;;;;;;4.10;1.10;;;14.00;99.90;;;;;;12186374;29;20828;-85
2022/05/31 10:53:22;;;;;;;3.47;1.35;;;13.90;99.90;;;;;;12174825;29;20147;-85
2022/05/31 10:59:36;;;;;;;3.47;1.40;;;14.00;99.90;;;;;;12188676;29;20078;-86
2022/05/31 11:06:12;;;;;;;6.05;1.52;;;13.90;99.90;;;;;;12170485;29;20416;-86
2022/05/31 11:12:59;;;;;;;4.45;1.23;;;14.00;99.90;;;;;;12177741;29;20076;-86
2022/05/31 11:19:16;;;;;;;2.58;1.23;;;14.10;99.90;;;;;;12175396;29;20580;-86
2022/05/31 11:25:57;;;;;;;5.18;1.67;;;14.00;99.90;;;;;;12184100;29;20211;-85
2022/05/31 11:32:48;;;;;;;3.10;1.30;;;13.80;99.90;;;;;;12194027;29;20420;-86
2022/05/31 11:39:09;;;;;;;5.53;1.40;;;13.80;99.90;;;;;;12185308;29;20131;-86
2022/05/31 11:45:29;;;;;;;3.30;1.10;;;13.70;99.90;;;;;;12194222;29;20064;-87
2022/05/31 11:51:46;;;;;;;4.57;1.20;;;13.80;99.90;;;;;;12188021;29;20060;-87
2022/05/31 11:58:06;;;;;;;4.18;1.40;;;13.90;99.90;;;;;;12185854;29;20140;-85
2022/05/31 12:04:21;;;;;;;3.85;1.33;;;13.80;99.90;;;;;;12199663;29;20086;-88
2022/05/31 12:10:28;;;;;;;5.13;1.17;;;13.70;99.90;;;;;;12187933;29;20056;-85
2022/05/31 12:16:31;;;;;;;5.13;1.42;;;13.70;99.90;;;;;;12180722;29;20099;-85
2022/05/31 12:22:39;;;;;;;5.35;1.58;;;13.60;99.90;;;;;;12199807;29;20067;-86
2022/05/31 12:28:57;;;;;;;5.22;1.40;;;13.60;99.90;;;;;;12180925;29;20059;-86
2022/05/31 12:35:02;;;;;;;3.80;1.77;;;13.60;99.90;;;;;;12208636;29;20482;-87
2022/05/31 12:41:04;;;;;;;5.38;2.08;;;13.80;99.90;;;;;;12212249;29;20072;-87
2022/05/31 12:47:15;;;;;;;5.38;1.85;;;14.00;99.90;;;;;;12190453;29;20193;-87
2022/05/31 12:53:39;;;;;;;4.32;2.10;;;13.90;99.90;;;;;;12193484;29;20496;-87
2022/05/31 12:59:44;;;;;;;4.13;1.77;;;13.80;99.90;;;;;;12178748;29;20563;-87
2022/05/31 13:06:37;;;;;;;4.47;2.10;;;13.80;99.90;;;;;;12177723;29;20067;-85
2022/05/31 13:25:30;;;;;;;7.60;2.20;;;13.60;99.90;;;;;;12205443;29;20080;-86
2022/05/31 13:31:35;;;;;;;7.03;2.08;;;13.60;99.90;;;;;;12186391;29;20139;-86
2022/05/31 13:37:57;;;;;;;5.45;1.70;;;13.60;99.90;;;;;;12207931;29;20488;-86
2022/05/31 13:44:06;;;;;;;6.15;1.83;;;13.80;99.90;;;;;;12206293;29;20056;-87
2022/05/31 13:50:08;;;;;;;3.42;1.77;;;13.90;99.90;;;;;;12194957;29;20063;-86
2022/05/31 13:56:17;;;;;;;6.50;2.37;;;13.80;99.90;;;;;;12190046;29;20051;-86
2022/05/31 14:02:53;;;;;;;4.32;1.92;;;13.90;99.90;;;;;;12194126;29;20063;-85
2022/05/31 14:08:57;;;;;;;5.68;2.22;;;14.00;99.90;;;;;;12215665;29;20131;-85
2022/05/31 14:15:01;;;;;;;6.50;2.30;;;14.10;99.90;;;;;;12207928;29;20067;-86
2022/05/31 14:21:03;;;;;;;6.57;2.65;;;14.20;99.90;;;;;;12186855;29;20071;-85
2022/05/31 14:27:05;;;;;;;6.05;2.47;;;14.30;99.90;;;;;;12198417;29;20522;-86
2022/05/31 14:33:08;;;;;;;7.70;2.65;;;14.50;99.90;;;;;;12201763;29;20115;-86
2022/05/31 14:39:18;;;;;;;7.03;2.30;;;14.70;99.90;;;;;;12182334;29;20525;-86
2022/05/31 14:45:28;;;;;;;4.90;1.83;;;14.90;99.90;;;;;;12189242;29;20134;-87
2022/05/31 14:51:43;;;;;;;4.65;1.83;;;14.90;99.90;;;;;;12169104;29;20064;-86
2022/05/31 15:04:27;;;;;;;5.40;1.77;;;14.90;99.90;;;;;;12161861;29;20057;-86
2022/05/31 15:10:34;;;;;;;6.30;1.60;;;14.80;99.90;;;;;;12175713;29;20504;-87
2022/05/31 15:23:01;;;;;;;6.43;2.33;;;14.80;99.90;;;;;;12197345;29;20102;-88
2022/05/31 15:29:03;;;;;;;2.60;1.05;;;14.90;99.90;;;;;;12190928;29;20147;-86
2022/05/31 15:35:10;;;;;;;2.35;1.30;;;15.00;99.90;;;;;;12179862;29;20088;-87
2022/05/31 15:41:22;;;;;;;2.53;1.20;;;15.20;99.90;;;;;;12195478;29;20051;-86
2022/05/31 15:47:24;;;;;;;4.85;1.67;;;15.40;99.90;;;;;;12192423;29;20484;-87
2022/05/31 15:53:28;;;;;;;4.85;1.30;;;15.70;99.90;;;;;;12197241;29;20044;-86
2022/05/31 15:59:34;;;;;;;3.40;1.30;;;16.00;99.90;;;;;;12209108;29;20048;-87
2022/05/31 16:05:37;;;;;;;2.92;1.20;;;16.30;99.90;;;;;;12200032;29;20119;-85
2022/05/31 16:11:41;;;;;;;3.70;1.37;;;16.30;99.90;;;;;;12201513;29;20444;-86
2022/05/31 16:17:43;;;;;;;;;;;16.50;99.90;;;;;;12189265;29;20044;-87
2022/05/31 16:23:47;;;;;;;2.88;1.10;;;16.20;99.90;;;;;;12196396;29;20058;-86
2022/05/31 16:29:49;;;;;;;3.67;1.50;;;16.40;99.90;;;;;;12208223;29;20187;-86
2022/05/31 16:35:53;;;;;;;4.28;1.30;;;16.20;99.90;;;;;;12203802;29;20175;-87
2022/05/31 16:41:56;;;;;;;1.80;1.00;;;16.40;99.90;;;;;;12188148;29;20427;-86
2022/05/31 16:47:58;;;;;;;2.78;1.20;;;16.60;99.90;;;;;;12188724;29;20135;-86
2022/05/31 16:54:27;;;;;;;2.05;1.10;;;16.70;99.90;;;;;;12197419;29;20070;-86
2022/05/31 17:00:29;;;;;;;3.63;1.20;;;16.70;99.90;;;;;;12182010;29;20539;-85
2022/05/31 17:19:12;;;;;;;3.63;1.30;;;15.70;99.90;;;;;;12208383;29;20088;-85
2022/05/31 17:25:23;;;;;;;5.18;1.48;;;15.40;99.90;;;;;;12184231;29;20151;-85
2022/05/31 17:31:26;;;;;;;2.50;1.10;;;15.00;99.90;;;;;;12189369;29;20087;-87
2022/05/31 17:37:28;;;;;;;3.13;1.40;;;14.90;99.90;;;;;;12195327;29;20051;-85
2022/05/31 17:43:30;;;;;;;2.67;1.13;;;14.80;99.90;;;;;;12204324;29;20525;-85
2022/05/31 17:49:32;;;;;;;3.38;1.75;;;14.70;99.90;;;;;;12184133;29;20496;-86
2022/05/31 17:55:34;;;;;;;4.63;1.70;;;14.60;99.90;;;;;;12210434;29;20111;-86
2022/05/31 18:01:36;;;;;;;2.97;1.17;;;14.50;99.90;;;;;;12204162;29;20476;-85
2022/05/31 18:07:38;;;;;;;3.53;1.40;;;14.50;99.90;;;;;;12202153;29;20064;-87
2022/05/31 18:13:40;;;;;;;3.10;1.50;;;14.60;99.90;;;;;;12202856;29;20184;-87
2022/05/31 18:19:41;;;;;;;2.60;1.20;;;14.60;99.90;;;;;;12205870;29;20131;-87
2022/05/31 18:25:46;;;;;;;5.38;1.58;;;14.40;99.90;;;;;;12184401;29;20139;-85
2022/05/31 18:31:48;;;;;;;2.83;1.63;;;14.40;99.90;;;;;;12178391;29;20063;-85
2022/05/31 18:44:11;;;;;;;4.70;1.70;;;14.30;99.90;;;;;;12199519;29;20599;-85
2022/05/31 18:50:15;;;;;;;2.78;1.67;;;14.20;99.90;;;;;;12194669;29;20592;-87
2022/05/31 18:56:17;;;;;;;2.95;1.75;;;14.20;99.90;;;;;;12206909;29;20507;-86
2022/05/31 19:02:22;;;;;;;5.93;1.90;;;14.10;99.90;;;;;;12185571;29;20107;-86
2022/05/31 19:08:23;;;;;;;5.35;1.40;;;14.30;99.90;;;;;;12192076;29;20143;-85
2022/05/31 19:14:33;;;;;;;3.25;1.77;;;14.30;99.90;;;;;;12188687;29;20060;-86
2022/05/31 19:20:35;;;;;;;3.65;1.80;;;14.50;99.90;;;;;;12189213;29;20508;-85
2022/05/31 19:26:38;;;;;;;2.88;1.58;;;14.30;99.90;;;;;;12207707;29;20103;-86
2022/05/31 19:32:47;;;;;;;5.30;1.97;;;14.20;99.90;;;;;;12191501;29;20063;-86
2022/05/31 19:38:53;;;;;;;3.38;1.95;;;14.10;99.90;;;;;;12177073;29;20308;-86
2022/05/31 19:44:55;;;;;;;2.30;1.67;;;14.20;99.90;;;;;;12177794;29;20060;-84
2022/05/31 19:50:57;;;;;;;4.15;1.77;;;14.10;99.90;;;;;;12182296;29;20135;-84
2022/05/31 19:57:01;;;;;;;3.47;1.70;;;14.10;99.90;;;;;;12194949;29;20103;-84
2022/05/31 20:03:02;;;;;;;3.60;1.80;;;14.10;99.90;;;;;;12183617;29;20060;-85
2022/05/31 20:15:39;;;;;;;4.45;1.90;;;14.10;99.90;;;;;;12194432;29;20416;-85
2022/05/31 20:21:43;;;;;;;3.60;1.77;;;14.10;99.90;;;;;;12189478;29;20532;-85
2022/05/31 20:27:45;;;;;;;2.05;1.40;;;14.00;99.90;;;;;;12177219;29;20103;-84
2022/05/31 20:33:47;;;;;;;2.40;1.65;;;14.00;99.90;;;;;;12182425;29;20083;-84
2022/05/31 20:39:49;;;;;;;3.20;1.50;;;13.80;99.90;;;;;;12208391;29;20056;-84
2022/05/31 20:45:51;;;;;;;3.92;1.40;;;13.80;99.90;;;;;;12205934;29;20079;-85
2022/05/31 20:51:57;;;;;;;5.15;1.80;;;13.80;99.90;;;;;;12180043;29;20115;-84
2022/05/31 20:57:59;;;;;;;3.22;1.80;;;13.70;99.90;;;;;;12185411;29;20079;-84
2022/05/31 21:04:02;;;;;;;3.00;1.70;;;13.60;99.90;;;;;;12185989;29;20091;-85
2022/05/31 21:10:07;;;;;;;3.10;1.90;;;13.50;99.90;;;;;;12185927;29;20088;-84
2022/05/31 21:16:09;;;;;;;2.45;1.60;;;13.30;99.90;;;;;;12188819;29;20178;-85
2022/05/31 21:22:14;;;;;;;4.05;1.63;;;13.20;99.90;;;;;;12209569;29;20550;-84
2022/05/31 21:28:17;;;;;;;3.17;1.70;;;12.90;99.90;;;;;;12206262;29;20145;-86
2022/05/31 21:34:19;;;;;;;4.82;1.92;;;12.80;99.90;;;;;;12185382;29;20056;-84
2022/05/31 21:46:42;;;;;;;3.67;2.10;;;12.70;99.90;;;;;;12191056;29;20640;-84
2022/05/31 21:52:44;;;;;;;4.03;2.20;;;12.70;99.90;;;;;;12186547;29;20052;-83
2022/05/31 21:58:47;;;;;;;2.67;1.85;;;12.50;99.90;;;;;;12178481;29;20060;-84
2022/05/31 22:04:48;;;;;;;4.05;2.55;;;12.50;99.90;;;;;;12202114;29;20513;-84
2022/05/31 22:10:51;;;;;;;4.45;3.00;;;12.30;99.90;;;;;;12192511;29;20105;-85
2022/05/31 22:16:53;;;;;;;4.72;2.80;;;12.40;99.90;;;;;;12188025;29;20123;-84
2022/05/31 22:22:55;;;;;;;6.13;3.83;;;12.20;99.90;;;;;;12194429;29;20052;-84
2022/05/31 22:28:57;;;;;;;5.35;3.28;;;12.00;99.90;;;;;;12182670;29;20179;-84
2022/05/31 22:34:59;;;;;;;3.40;2.80;;;12.10;99.90;;;;;;12168893;29;20412;-84
2022/05/31 22:41:01;;;;;;;5.30;2.83;;;11.90;99.90;;;;;;12205841;29;20052;-83
2022/05/31 22:47:03;;;;;;;3.65;2.53;;;12.10;99.90;;;;;;12186383;29;20406;-84
2022/05/31 22:53:05;;;;;;;5.13;2.33;;;12.10;99.90;;;;;;12180662;29;20055;-83
2022/05/31 22:59:09;;;;;;;4.63;2.15;;;12.20;99.90;;;;;;12184491;29;20559;-84
2022/05/31 23:05:13;;;;;;;4.35;2.90;;;12.20;99.90;;;;;;12179044;29;20142;-83
2022/05/31 23:11:16;;;;;;;4.07;2.97;;;12.30;99.90;;;;;;12206213;29;20056;-84
2022/05/31 23:17:18;;;;;;;7.68;3.35;;;12.40;99.90;;;;;;12214997;29;20105;-83
2022/05/31 23:23:55;;;;;;;6.15;3.83;;;12.50;99.90;;;;;;12182759;29;20554;-84
2022/05/31 23:29:50;;;;;;;7.88;3.92;;;12.50;99.90;;;;;;12201565;29;20056;-82
2022/05/31 23:35:53;;;;;;;7.65;4.55;;;12.60;99.90;;;;;;12186288;29;20138;-84
2022/05/31 23:41:59;;;;;;;7.90;4.93;;;12.50;99.90;;;;;;12196594;29;20052;-83
2022/05/31 23:48:01;;;;;;;8.48;5.15;;;12.50;99.90;;;;;;12181352;29;20078;-84
2022/05/31 23:54:03;;;;;;;7.80;5.15;;;12.40;99.90;;;;;;12196065;29;20433;-83
